Time;durP1;ratioP1;P1;durP2;ratioP2;P2;SDS_P1;SDS_P2;PMS_P1;PMS_P2;Temp;Humidity;BMP_temperature;BMP_pressure;BME280_temperature;BME280_humidity;BME280_pressure;Samples;Min_cycle;Max_cycle;Signal;HPM_P1;HPM_P2
2022/05/29 00:00:40;;;;;;;7.40;2.17;;;9.60;99.90;;;;;;6247261;23;20027;-80
2022/05/29 00:03:06;;;;;;;8.65;2.20;;;9.60;99.90;;;;;;6242286;23;20008;-80
2022/05/29 00:05:32;;;;;;;8.70;2.30;;;9.60;99.90;;;;;;6243909;23;20008;-80
2022/05/29 00:07:59;;;;;;;11.32;2.17;;;9.50;99.90;;;;;;6246139;23;20012;-80
2022/05/29 00:10:24;;;;;;;6.05;2.50;;;9.50;99.90;;;;;;6244510;23;20032;-80
2022/05/29 00:12:50;;;;;;;4.72;2.05;;;9.60;99.90;;;;;;6243475;22;20015;-80
2022/05/29 00:15:16;;;;;;;6.18;1.90;;;9.60;99.90;;;;;;6242404;23;20016;-80
2022/05/29 00:17:42;;;;;;;6.35;1.70;;;9.60;99.90;;;;;;6245136;22;20012;-81
2022/05/29 00:20:08;;;;;;;6.22;1.52;;;9.60;99.90;;;;;;6242096;23;20038;-80
2022/05/29 00:22:34;;;;;;;7.85;3.08;;;9.60;99.90;;;;;;6242267;22;20012;-80
2022/05/29 00:25:02;;;;;;;9.82;2.17;;;9.70;99.90;;;;;;6244032;22;20082;-80
2022/05/29 00:27:27;;;;;;;5.93;2.47;;;9.70;99.90;;;;;;6242294;23;20016;-80
2022/05/29 00:29:53;;;;;;;7.82;2.20;;;9.80;99.90;;;;;;6243626;22;20514;-81
2022/05/29 00:32:19;;;;;;;5.43;1.92;;;9.80;99.90;;;;;;6244819;22;20010;-80
2022/05/29 00:34:44;;;;;;;6.57;1.67;;;9.80;99.90;;;;;;6217100;23;20015;-81
2022/05/29 00:37:11;;;;;;;8.63;1.92;;;9.80;99.90;;;;;;6241901;23;20066;-81
2022/05/29 00:39:36;;;;;;;13.02;2.42;;;9.80;99.90;;;;;;6241692;23;20509;-81
2022/05/29 00:42:08;;;;;;;5.70;1.95;;;9.90;99.90;;;;;;6242573;22;20051;-81
2022/05/29 00:44:34;;;;;;;7.68;1.88;;;9.80;99.90;;;;;;6244393;22;20016;-81
2022/05/29 00:47:09;;;;;;;7.72;1.95;;;9.80;99.90;;;;;;6243730;22;20027;-81
2022/05/29 00:49:36;;;;;;;8.05;2.13;;;9.80;99.90;;;;;;6241916;23;20027;-80
2022/05/29 00:52:18;;;;;;;7.20;1.83;;;9.70;99.90;;;;;;6216261;23;20035;-80
2022/05/29 00:54:55;;;;;;;7.22;2.33;;;9.90;99.90;;;;;;6216927;23;20067;-80
2022/05/29 00:57:28;;;;;;;8.40;2.28;;;9.80;99.90;;;;;;6242539;23;20026;-80
2022/05/29 00:59:57;;;;;;;7.80;2.63;;;9.90;99.90;;;;;;6241273;23;20016;-80
2022/05/29 01:02:23;;;;;;;5.50;2.45;;;9.90;99.90;;;;;;6241338;22;20009;-80
2022/05/29 01:04:49;;;;;;;12.02;2.78;;;9.90;99.90;;;;;;6242050;23;20199;-81
2022/05/29 01:07:18;;;;;;;7.55;2.50;;;9.90;99.90;;;;;;6216822;23;20016;-81
2022/05/29 01:09:46;;;;;;;4.60;1.85;;;9.90;99.90;;;;;;6241738;23;20023;-80
2022/05/29 01:12:44;;;;;;;8.50;2.33;;;9.90;99.90;;;;;;6241962;22;20044;-80
2022/05/29 01:15:24;;;;;;;10.25;2.28;;;9.90;99.90;;;;;;6216612;23;20019;-81
2022/05/29 01:18:08;;;;;;;10.27;2.40;;;9.90;99.90;;;;;;6241944;23;20036;-80
2022/05/29 01:20:39;;;;;;;8.70;2.65;;;9.90;99.90;;;;;;6216371;23;20018;-80
2022/05/29 01:23:28;;;;;;;7.70;2.40;;;9.80;99.90;;;;;;6243689;22;20039;-80
2022/05/29 01:26:08;;;;;;;8.55;2.17;;;9.80;99.90;;;;;;6229398;23;20012;-80
2022/05/29 01:28:37;;;;;;;8.18;2.63;;;9.70;99.90;;;;;;6242083;23;20040;-80
2022/05/29 01:31:13;;;;;;;9.82;2.20;;;9.60;99.90;;;;;;6241208;23;20019;-81
2022/05/29 01:33:53;;;;;;;9.20;2.67;;;9.50;99.90;;;;;;6241757;22;20019;-80
2022/05/29 01:36:25;;;;;;;6.80;2.42;;;9.50;99.90;;;;;;6241876;23;20044;-80
2022/05/29 01:38:50;;;;;;;;;;;9.40;99.90;;;;;;6242684;23;20070;-80
2022/05/29 01:41:33;;;;;;;7.40;2.72;;;9.30;99.90;;;;;;6241470;23;20329;-80
2022/05/29 01:44:19;;;;;;;6.50;2.70;;;9.30;99.90;;;;;;6245750;22;20449;-80
2022/05/29 01:46:49;;;;;;;8.68;2.20;;;9.30;99.90;;;;;;6243923;23;20020;-80
2022/05/29 01:49:24;;;;;;;6.63;3.15;;;9.20;99.90;;;;;;6243950;23;20387;-80
2022/05/29 01:51:58;;;;;;;6.50;2.15;;;9.30;99.90;;;;;;6243693;22;20016;-80
2022/05/29 01:54:30;;;;;;;5.13;2.10;;;9.30;99.90;;;;;;6244226;23;20069;-80
2022/05/29 01:57:03;;;;;;;8.65;3.08;;;9.30;99.90;;;;;;6244216;23;20008;-80
2022/05/29 01:59:46;;;;;;;10.98;2.20;;;9.30;99.90;;;;;;6246098;22;20035;-80
2022/05/29 02:02:17;;;;;;;9.18;2.15;;;9.40;99.90;;;;;;6243576;22;20039;-81
2022/05/29 02:04:47;;;;;;;9.80;2.55;;;9.30;99.90;;;;;;6244237;23;20008;-80
2022/05/29 02:10:02;;;;;;;7.35;2.40;;;9.40;99.90;;;;;;6245631;23;20035;-80
2022/05/29 02:12:30;;;;;;;6.60;2.85;;;9.40;99.90;;;;;;6219742;23;20012;-80
2022/05/29 02:15:01;;;;;;;7.47;2.53;;;9.50;99.90;;;;;;6244388;23;20016;-80
2022/05/29 02:17:34;;;;;;;8.00;2.42;;;9.50;99.90;;;;;;6245008;23;20060;-80
2022/05/29 02:20:08;;;;;;;5.82;2.08;;;9.50;99.90;;;;;;6244510;23;20091;-80
2022/05/29 02:22:35;;;;;;;9.32;2.65;;;9.50;99.90;;;;;;6246693;22;20095;-80
2022/05/29 02:25:18;;;;;;;5.10;2.67;;;9.60;99.90;;;;;;6246276;22;20069;-80
2022/05/29 02:27:52;;;;;;;10.75;2.53;;;9.60;99.90;;;;;;6244855;23;20008;-81
2022/05/29 02:30:18;;;;;;;7.20;2.22;;;9.60;99.90;;;;;;6244734;23;20019;-80
2022/05/29 02:33:18;;;;;;;10.70;2.83;;;9.50;99.90;;;;;;6218843;23;20020;-80
2022/05/29 02:36:23;;;;;;;4.03;2.58;;;9.60;99.90;;;;;;6219494;23;20016;-80
2022/05/29 02:39:02;;;;;;;6.78;2.42;;;9.60;99.90;;;;;;6244286;23;20409;-80
2022/05/29 02:41:52;;;;;;;7.85;2.20;;;9.60;99.90;;;;;;6244705;22;20031;-80
2022/05/29 02:44:30;;;;;;;8.40;2.60;;;9.60;99.90;;;;;;6218847;23;20012;-80
2022/05/29 02:47:11;;;;;;;5.47;2.30;;;9.50;99.90;;;;;;6244974;23;20008;-80
2022/05/29 02:50:08;;;;;;;8.23;2.25;;;9.50;99.90;;;;;;6243495;23;20017;-80
2022/05/29 02:52:33;;;;;;;6.60;2.22;;;9.60;99.90;;;;;;6231420;22;20047;-80
2022/05/29 02:54:59;;;;;;;5.47;2.47;;;9.60;99.90;;;;;;6218598;23;20066;-80
2022/05/29 02:57:25;;;;;;;5.38;2.30;;;9.60;99.90;;;;;;6218930;23;20008;-80
2022/05/29 02:59:57;;;;;;;15.18;3.60;;;9.70;99.90;;;;;;6243448;23;20461;-80
2022/05/29 03:02:57;;;;;;;6.32;2.28;;;9.60;99.90;;;;;;6243845;22;20066;-80
2022/05/29 03:05:26;;;;;;;8.88;2.22;;;9.60;99.90;;;;;;6242990;23;20067;-80
2022/05/29 03:07:52;;;;;;;12.30;2.78;;;9.60;99.90;;;;;;6246930;23;20038;-81
2022/05/29 03:10:29;;;;;;;9.70;2.55;;;9.60;99.90;;;;;;6250151;23;20071;-81
2022/05/29 03:12:57;;;;;;;10.05;2.42;;;9.60;99.90;;;;;;6224768;23;20211;-80
2022/05/29 03:15:54;;;;;;;8.80;3.80;;;9.60;99.90;;;;;;6245458;23;20012;-81
2022/05/29 03:18:53;;;;;;;11.15;2.85;;;9.60;99.90;;;;;;6220535;23;20009;-81
2022/05/29 03:21:43;;;;;;;8.60;2.22;;;9.60;99.90;;;;;;6245854;23;20441;-81
2022/05/29 03:24:28;;;;;;;8.82;3.20;;;9.60;99.90;;;;;;6220484;23;20042;-80
2022/05/29 03:27:09;;;;;;;10.00;2.50;;;9.60;99.90;;;;;;6221097;23;20016;-80
2022/05/29 03:30:03;;;;;;;8.35;2.28;;;9.60;99.90;;;;;;6220595;23;20322;-80
2022/05/29 03:32:29;;;;;;;5.40;2.22;;;9.60;99.90;;;;;;6246101;22;20026;-80
2022/05/29 03:34:55;;;;;;;14.63;2.70;;;9.60;99.90;;;;;;6221354;23;20013;-80
2022/05/29 03:37:21;;;;;;;13.13;3.08;;;9.60;99.90;;;;;;6245916;23;20016;-80
2022/05/29 03:39:46;;;;;;;9.32;2.10;;;9.60;99.90;;;;;;6244724;23;20008;-80
2022/05/29 03:42:12;;;;;;;8.07;2.03;;;9.60;99.90;;;;;;6245248;23;20087;-81
2022/05/29 03:44:38;;;;;;;10.43;2.00;;;9.60;99.90;;;;;;6245928;23;20403;-82
2022/05/29 03:47:04;;;;;;;10.23;2.47;;;9.60;99.90;;;;;;6248142;22;20012;-81
2022/05/29 03:49:30;;;;;;;7.72;2.38;;;9.60;99.90;;;;;;6245565;23;20012;-83
2022/05/29 03:51:55;;;;;;;4.35;2.35;;;9.70;99.90;;;;;;6245722;22;20020;-80
2022/05/29 03:54:21;;;;;;;12.00;2.33;;;9.70;99.90;;;;;;6247944;22;20095;-81
2022/05/29 03:56:47;;;;;;;9.80;2.08;;;9.70;99.90;;;;;;6219748;23;20008;-80
2022/05/29 03:59:12;;;;;;;9.13;2.42;;;9.70;99.90;;;;;;6244727;23;20516;-81
2022/05/29 04:01:38;;;;;;;5.03;1.95;;;9.60;99.90;;;;;;6240329;23;20095;-83
2022/05/29 04:04:04;;;;;;;8.70;2.55;;;9.60;99.90;;;;;;6164443;23;20036;-80
2022/05/29 04:06:34;;;;;;;7.53;2.65;;;9.60;99.90;;;;;;6188920;23;20023;-80
2022/05/29 04:12:04;;;;;;;7.93;2.13;;;9.60;99.90;;;;;;6190081;23;20103;-84
2022/05/29 04:14:30;;;;;;;10.10;2.35;;;9.70;99.90;;;;;;6190038;23;20071;-81
2022/05/29 04:16:56;;;;;;;15.85;2.63;;;9.70;99.90;;;;;;6164856;23;20512;-80
2022/05/29 04:19:22;;;;;;;12.07;2.20;;;9.70;99.90;;;;;;6190117;23;20040;-81
2022/05/29 04:21:49;;;;;;;11.85;2.17;;;9.70;99.90;;;;;;6216634;23;20008;-80
2022/05/29 04:24:16;;;;;;;8.93;3.22;;;9.80;99.90;;;;;;6165918;23;20013;-80
2022/05/29 04:26:42;;;;;;;6.00;1.92;;;9.80;99.90;;;;;;6192548;23;20028;-80
2022/05/29 04:29:07;;;;;;;6.35;2.13;;;9.80;99.90;;;;;;6169179;23;20323;-81
2022/05/29 04:31:33;;;;;;;8.38;1.83;;;9.80;99.90;;;;;;6167815;23;20395;-84
2022/05/29 04:33:59;;;;;;;14.40;2.53;;;9.90;99.90;;;;;;6171225;23;20071;-81
2022/05/29 04:36:25;;;;;;;6.40;1.90;;;9.90;99.90;;;;;;6194958;23;20035;-81
2022/05/29 04:38:52;;;;;;;9.70;2.50;;;9.90;99.90;;;;;;6223011;23;20412;-82
2022/05/29 04:41:24;;;;;;;6.68;2.38;;;10.00;99.90;;;;;;6193830;23;20020;-82
2022/05/29 04:43:49;;;;;;;8.05;2.83;;;10.00;99.90;;;;;;6222623;23;20011;-82
2022/05/29 04:46:15;;;;;;;8.90;1.92;;;10.10;99.90;;;;;;6169231;23;20039;-81
2022/05/29 04:48:41;;;;;;;8.80;1.80;;;10.10;99.90;;;;;;6172156;23;20387;-81
2022/05/29 04:51:07;;;;;;;9.52;2.40;;;10.10;99.90;;;;;;6194083;23;20008;-81
2022/05/29 04:53:33;;;;;;;13.38;2.33;;;10.10;99.90;;;;;;6196915;23;20035;-81
2022/05/29 04:55:59;;;;;;;4.70;1.55;;;10.20;99.90;;;;;;6196221;23;20067;-81
2022/05/29 04:58:26;;;;;;;7.75;1.98;;;10.20;99.90;;;;;;6196793;23;20511;-81
2022/05/29 05:00:57;;;;;;;11.35;2.17;;;10.20;99.90;;;;;;6171467;23;20333;-82
2022/05/29 05:03:23;;;;;;;4.10;1.70;;;10.20;99.90;;;;;;6224375;23;20013;-80
2022/05/29 05:05:49;;;;;;;5.47;1.63;;;10.20;99.90;;;;;;6173174;23;20125;-81
2022/05/29 05:08:14;;;;;;;8.95;1.50;;;10.30;99.90;;;;;;6173642;23;20461;-82
2022/05/29 05:10:41;;;;;;;7.40;1.90;;;10.30;99.90;;;;;;6198473;23;20016;-81
2022/05/29 05:13:08;;;;;;;10.85;1.65;;;10.30;99.90;;;;;;6171310;23;20134;-81
2022/05/29 05:15:34;;;;;;;7.50;2.00;;;10.40;99.90;;;;;;6197503;23;20013;-81
2022/05/29 05:18:00;;;;;;;9.85;1.90;;;10.40;99.90;;;;;;6173100;23;20043;-81
2022/05/29 05:20:25;;;;;;;4.97;1.55;;;10.50;99.90;;;;;;6172680;23;20013;-81
2022/05/29 05:22:52;;;;;;;3.55;1.52;;;10.50;99.90;;;;;;6172530;23;20020;-81
2022/05/29 05:25:18;;;;;;;10.30;2.72;;;10.50;99.90;;;;;;6196280;23;20062;-81
2022/05/29 05:27:43;;;;;;;2.88;1.70;;;10.60;99.90;;;;;;6198625;23;20017;-81
2022/05/29 05:30:10;;;;;;;11.43;1.58;;;10.70;99.90;;;;;;6224695;23;20013;-81
2022/05/29 05:32:35;;;;;;;12.35;2.15;;;10.80;99.90;;;;;;6171587;23;20410;-81
2022/05/29 05:35:04;;;;;;;6.40;2.03;;;10.90;99.90;;;;;;6222156;23;20074;-83
2022/05/29 05:37:30;;;;;;;8.30;1.60;;;10.90;99.90;;;;;;6195219;23;20019;-81
2022/05/29 05:39:56;;;;;;;4.78;1.45;;;11.00;99.90;;;;;;6196526;23;20005;-81
2022/05/29 05:42:22;;;;;;;7.03;1.65;;;11.10;99.90;;;;;;6196502;23;20084;-81
2022/05/29 05:44:48;;;;;;;13.65;1.60;;;11.30;99.90;;;;;;6195387;23;20013;-81
2022/05/29 05:47:13;;;;;;;9.30;1.45;;;11.50;99.90;;;;;;6172294;23;20009;-83
2022/05/29 05:49:39;;;;;;;5.68;1.73;;;11.70;99.90;;;;;;6169470;23;20442;-83
2022/05/29 05:52:06;;;;;;;6.65;1.10;;;11.80;99.90;;;;;;6171012;23;20068;-80
2022/05/29 05:54:34;;;;;;;8.63;1.52;;;11.80;99.90;;;;;;6168806;23;20063;-82
2022/05/29 05:56:59;;;;;;;6.13;1.33;;;11.80;99.90;;;;;;6171049;23;20008;-80
2022/05/29 05:59:25;;;;;;;5.90;1.25;;;11.80;99.90;;;;;;6195890;23;20015;-81
2022/05/29 06:01:52;;;;;;;14.18;2.22;;;11.70;99.90;;;;;;6204751;22;20388;-81
2022/05/29 06:04:18;;;;;;;7.72;1.80;;;11.80;99.90;;;;;;6253313;23;20012;-82
2022/05/29 06:06:44;;;;;;;7.90;1.40;;;11.70;99.90;;;;;;6252964;23;20361;-82
2022/05/29 06:09:10;;;;;;;6.93;1.27;;;11.70;99.90;;;;;;6227626;23;20019;-80
2022/05/29 06:11:39;;;;;;;8.32;1.88;;;11.70;99.90;;;;;;6253063;22;20050;-81
2022/05/29 06:14:06;;;;;;;4.30;1.15;;;11.70;99.90;;;;;;6250465;23;20083;-81
2022/05/29 06:16:31;;;;;;;7.63;2.08;;;11.80;99.90;;;;;;6224051;23;20503;-80
2022/05/29 06:18:57;;;;;;;6.07;1.73;;;11.80;99.90;;;;;;6251270;23;20012;-80
2022/05/29 06:21:22;;;;;;;5.60;1.60;;;12.10;99.90;;;;;;6249770;23;20012;-83
2022/05/29 06:23:48;;;;;;;7.82;1.85;;;12.50;99.90;;;;;;6224895;23;20491;-80
2022/05/29 06:26:14;;;;;;;7.60;1.38;;;12.90;99.90;;;;;;6255633;22;20019;-81
2022/05/29 06:28:41;;;;;;;12.15;1.60;;;12.90;99.90;;;;;;6257123;23;20070;-82
2022/05/29 06:31:08;;;;;;;9.48;2.15;;;12.80;99.90;;;;;;6254475;23;20012;-81
2022/05/29 06:33:34;;;;;;;8.32;1.40;;;12.70;99.90;;;;;;6251615;22;20012;-80
2022/05/29 06:36:23;;;;;;;4.82;1.40;;;12.60;99.90;;;;;;6249440;23;20004;-81
2022/05/29 06:38:49;;;;;;;6.65;2.03;;;12.50;99.90;;;;;;6221673;23;20013;-80
2022/05/29 06:41:17;;;;;;;6.05;1.50;;;12.40;99.90;;;;;;6220674;23;20294;-82
2022/05/29 06:43:42;;;;;;;5.78;1.15;;;12.30;99.90;;;;;;6248483;23;20012;-80
2022/05/29 06:46:09;;;;;;;4.55;1.30;;;12.30;99.90;;;;;;6247396;23;20044;-80
2022/05/29 06:48:37;;;;;;;9.05;1.90;;;12.40;99.90;;;;;;6248111;23;20022;-82
2022/05/29 06:51:04;;;;;;;6.40;0.93;;;12.30;99.90;;;;;;6245744;23;20012;-80
2022/05/29 06:53:30;;;;;;;8.50;1.45;;;12.30;99.90;;;;;;6248180;22;20016;-80
2022/05/29 06:55:56;;;;;;;12.50;1.63;;;12.20;99.90;;;;;;6246393;23;20019;-81
2022/05/29 06:58:23;;;;;;;6.97;1.15;;;12.10;99.90;;;;;;6247392;23;20055;-81
2022/05/29 07:09:04;;;;;;;6.88;1.42;;;11.50;99.90;;;;;;6248455;23;20024;-80
2022/05/29 07:11:35;;;;;;;12.63;1.77;;;11.50;99.90;;;;;;6249314;22;20023;-80
2022/05/29 07:14:04;;;;;;;6.43;1.40;;;11.50;99.90;;;;;;6249424;23;20354;-80
2022/05/29 07:16:30;;;;;;;5.03;1.02;;;11.50;99.90;;;;;;6223845;23;20235;-82
2022/05/29 07:18:56;;;;;;;6.00;1.27;;;11.50;99.90;;;;;;6223324;23;20461;-81
2022/05/29 07:21:22;;;;;;;5.88;0.95;;;11.50;99.90;;;;;;6222815;23;20096;-80
2022/05/29 07:23:48;;;;;;;9.27;1.48;;;11.60;99.90;;;;;;6222804;23;20022;-79
2022/05/29 07:26:14;;;;;;;12.68;2.08;;;11.60;99.90;;;;;;6222304;23;20039;-79
2022/05/29 07:28:39;;;;;;;5.93;1.27;;;11.70;99.90;;;;;;6221111;23;20099;-79
2022/05/29 07:31:05;;;;;;;10.05;1.75;;;11.70;99.90;;;;;;6247213;23;20020;-79
2022/05/29 07:33:31;;;;;;;7.32;1.60;;;11.80;99.90;;;;;;6245192;22;20020;-80
2022/05/29 07:35:59;;;;;;;5.15;1.13;;;11.80;99.90;;;;;;6247906;23;20341;-80
2022/05/29 07:38:26;;;;;;;6.47;1.13;;;11.80;99.90;;;;;;6222776;23;20008;-81
2022/05/29 07:40:52;;;;;;;6.70;1.20;;;11.80;99.90;;;;;;6247517;23;20043;-80
2022/05/29 07:43:22;;;;;;;9.52;1.27;;;11.80;99.90;;;;;;6247769;22;20031;-80
2022/05/29 07:45:54;;;;;;;4.85;1.27;;;11.80;99.90;;;;;;6247493;22;20008;-79
2022/05/29 07:48:23;;;;;;;4.22;1.30;;;11.80;99.90;;;;;;6247291;23;20008;-80
2022/05/29 07:50:49;;;;;;;13.32;2.90;;;11.90;99.90;;;;;;6243797;23;20008;-82
2022/05/29 07:53:15;;;;;;;7.70;1.67;;;11.90;99.90;;;;;;6219085;23;20461;-81
2022/05/29 07:55:43;;;;;;;9.48;1.75;;;12.10;99.90;;;;;;6223778;23;20008;-80
2022/05/29 07:58:10;;;;;;;7.95;2.03;;;12.10;99.90;;;;;;6225655;23;20023;-80
2022/05/29 08:00:36;;;;;;;10.02;1.65;;;12.20;99.90;;;;;;6222747;23;20133;-80
2022/05/29 08:03:03;;;;;;;10.98;2.17;;;12.30;99.90;;;;;;6246702;22;20027;-79
2022/05/29 08:05:31;;;;;;;8.27;1.83;;;12.40;99.90;;;;;;6221512;23;20091;-81
2022/05/29 08:07:57;;;;;;;8.77;1.25;;;12.50;99.90;;;;;;6223807;23;20043;-80
2022/05/29 08:10:24;;;;;;;8.25;1.75;;;12.60;99.90;;;;;;6222865;23;20008;-79
2022/05/29 08:12:51;;;;;;;10.82;1.85;;;12.70;99.90;;;;;;6246842;22;20023;-80
2022/05/29 08:15:17;;;;;;;10.45;2.20;;;12.80;99.90;;;;;;6244062;23;20350;-80
2022/05/29 08:17:43;;;;;;;6.28;1.45;;;13.00;99.90;;;;;;6247409;23;20012;-80
2022/05/29 08:20:11;;;;;;;9.13;1.40;;;13.10;99.90;;;;;;6246795;23;20012;-80
2022/05/29 08:22:36;;;;;;;9.40;1.00;;;13.10;99.90;;;;;;6246016;22;20019;-81
2022/05/29 08:30:38;;;;;;;2.85;0.90;;;13.00;99.90;;;;;;6246720;23;20078;-79
2022/05/29 08:33:24;;;;;;;6.35;1.00;;;13.10;99.90;;;;;;6246302;22;20012;-81
2022/05/29 08:35:55;;;;;;;7.63;2.15;;;13.20;99.90;;;;;;6223685;23;20438;-82
2022/05/29 08:38:21;;;;;;;2.17;0.68;;;13.20;99.90;;;;;;6249084;23;20208;-81
2022/05/29 08:40:50;;;;;;;4.68;0.65;;;13.00;99.90;;;;;;6250641;23;20014;-82
2022/05/29 08:43:27;;;;;;;3.40;1.20;;;12.90;99.90;;;;;;6250698;22;20019;-81
2022/05/29 08:45:53;;;;;;;7.60;1.40;;;12.90;99.90;;;;;;6252031;22;20083;-80
2022/05/29 08:48:22;;;;;;;6.85;1.02;;;12.90;99.90;;;;;;6247834;23;20016;-82
2022/05/29 08:51:04;;;;;;;7.07;0.90;;;12.80;99.90;;;;;;6223961;23;20062;-81
2022/05/29 08:53:34;;;;;;;5.10;0.90;;;12.60;99.90;;;;;;6250220;22;20012;-81
2022/05/29 08:56:13;;;;;;;7.83;0.97;;;12.20;99.90;;;;;;6248426;22;20090;-80
2022/05/29 08:58:53;;;;;;;6.03;0.90;;;12.00;99.90;;;;;;6243309;23;20243;-80
2022/05/29 09:01:30;;;;;;;4.03;1.20;;;12.00;99.90;;;;;;6243782;22;20058;-79
2022/05/29 09:04:00;;;;;;;4.53;0.95;;;12.00;99.90;;;;;;6213849;23;20341;-79
2022/05/29 09:06:28;;;;;;;4.93;0.63;;;12.00;99.90;;;;;;6213807;23;20062;-79
2022/05/29 09:09:04;;;;;;;7.10;0.98;;;12.20;99.90;;;;;;6213675;23;20106;-79
2022/05/29 09:11:35;;;;;;;3.95;0.90;;;12.40;99.90;;;;;;6187146;23;20020;-80
2022/05/29 09:14:10;;;;;;;4.47;0.77;;;12.60;99.90;;;;;;6187037;23;20021;-79
2022/05/29 09:16:45;;;;;;;2.75;0.60;;;12.80;99.90;;;;;;6213992;23;20019;-79
2022/05/29 09:19:24;;;;;;;3.35;0.88;;;13.20;99.90;;;;;;6187870;23;20044;-79
2022/05/29 09:22:00;;;;;;;4.47;0.80;;;13.40;99.90;;;;;;6187995;23;20088;-79
2022/05/29 09:24:47;;;;;;;7.50;0.65;;;13.60;99.90;;;;;;6162630;23;20055;-79
2022/05/29 09:27:15;;;;;;;5.82;1.10;;;13.80;99.90;;;;;;6163563;23;20070;-79
2022/05/29 09:29:40;;;;;;;4.55;0.90;;;13.80;99.90;;;;;;6186807;23;20477;-80
2022/05/29 09:32:14;;;;;;;5.30;0.80;;;13.80;99.90;;;;;;6187691;23;20021;-80
2022/05/29 09:34:41;;;;;;;1.67;0.63;;;13.80;99.90;;;;;;6164655;23;20292;-79
2022/05/29 09:37:13;;;;;;;5.03;1.63;;;13.80;99.90;;;;;;6190042;23;20012;-80
2022/05/29 09:39:45;;;;;;;3.50;0.50;;;13.80;99.90;;;;;;6214386;23;20013;-79
2022/05/29 09:42:37;;;;;;;3.42;0.60;;;13.70;99.90;;;;;;6187628;23;20019;-81
2022/05/29 09:45:13;;;;;;;2.67;0.57;;;13.70;99.90;;;;;;6187531;23;20066;-80
2022/05/29 09:50:52;;;;;;;3.08;0.60;;;13.60;99.90;;;;;;6221467;23;20055;-80
2022/05/29 09:53:27;;;;;;;4.13;0.55;;;13.50;99.90;;;;;;6176699;23;20071;-80
2022/05/29 09:56:03;;;;;;;6.50;0.55;;;13.30;99.90;;;;;;6220498;23;20038;-79
2022/05/29 09:58:47;;;;;;;9.05;0.85;;;13.20;99.90;;;;;;6214258;23;20040;-80
2022/05/29 10:01:37;;;;;;;2.17;0.70;;;12.90;99.90;;;;;;6187491;23;20369;-79
2022/05/29 10:04:15;;;;;;;2.67;0.75;;;12.80;99.90;;;;;;6214083;23;20020;-80
2022/05/29 10:06:44;;;;;;;2.40;0.80;;;12.60;99.90;;;;;;6214282;23;20044;-79
2022/05/29 10:09:18;;;;;;;4.15;0.68;;;12.60;99.90;;;;;;6215067;23;20012;-79
2022/05/29 10:12:09;;;;;;;3.90;0.93;;;12.60;99.90;;;;;;6215567;23;20012;-79
2022/05/29 10:14:42;;;;;;;3.47;0.70;;;12.70;99.90;;;;;;6198250;23;20397;-79
2022/05/29 10:17:32;;;;;;;3.13;0.85;;;12.90;99.90;;;;;;6214343;23;20019;-79
2022/05/29 10:19:57;;;;;;;4.88;0.63;;;13.10;99.90;;;;;;6213551;23;20059;-79
2022/05/29 10:22:32;;;;;;;5.22;1.20;;;13.30;99.90;;;;;;6213561;23;20031;-80
2022/05/29 10:24:59;;;;;;;4.00;0.90;;;13.40;99.90;;;;;;6213974;23;20017;-79
2022/05/29 10:27:33;;;;;;;4.85;0.95;;;13.30;99.90;;;;;;6213159;23;20365;-79
2022/05/29 10:30:05;;;;;;;4.93;0.80;;;13.30;99.90;;;;;;6214595;23;20027;-79
2022/05/29 10:32:33;;;;;;;4.15;1.15;;;13.20;99.90;;;;;;6189812;23;20397;-79
2022/05/29 10:35:16;;;;;;;5.65;1.80;;;13.10;99.90;;;;;;6188420;23;20396;-79
2022/05/29 10:37:42;;;;;;;;;;;13.00;99.90;;;;;;6215736;23;20051;-78
2022/05/29 10:40:31;;;;;;;3.13;0.52;;;12.80;99.90;;;;;;6214241;23;19915;-78
2022/05/29 10:43:04;;;;;;;6.07;0.80;;;12.80;99.90;;;;;;6214576;23;20053;-78
2022/05/29 10:45:46;;;;;;;6.88;0.93;;;12.80;99.90;;;;;;6212848;23;20447;-79
2022/05/29 10:48:45;;;;;;;3.83;1.38;;;12.90;99.90;;;;;;6214627;23;20070;-79
2022/05/29 10:51:35;;;;;;;5.03;0.95;;;13.10;99.90;;;;;;6213896;23;20021;-79
2022/05/29 10:54:18;;;;;;;4.60;0.95;;;13.30;99.90;;;;;;6188370;23;20485;-79
2022/05/29 10:57:02;;;;;;;5.07;1.08;;;13.50;99.90;;;;;;6215079;23;20016;-78
2022/05/29 11:00:05;;;;;;;7.95;1.45;;;13.70;99.90;;;;;;6189435;23;20008;-79
2022/05/29 11:06:04;;;;;;;5.18;1.17;;;13.50;99.90;;;;;;6243295;23;20073;-78
2022/05/29 11:08:35;;;;;;;5.07;1.02;;;13.20;99.90;;;;;;6244711;23;20066;-78
2022/05/29 11:11:17;;;;;;;4.22;0.85;;;13.10;99.90;;;;;;6242539;23;20404;-78
2022/05/29 11:14:00;;;;;;;4.60;0.90;;;13.00;99.90;;;;;;6242493;22;20863;-78
2022/05/29 11:16:29;;;;;;;3.58;0.70;;;12.90;99.90;;;;;;6243017;23;20008;-78
2022/05/29 11:19:01;;;;;;;4.82;0.70;;;12.90;99.90;;;;;;6218011;23;20465;-78
2022/05/29 11:21:52;;;;;;;;;;;12.90;99.90;;;;;;6242983;23;20008;-78
2022/05/29 11:24:44;;;;;;;7.28;0.80;;;13.10;99.90;;;;;;6217734;23;19911;-78
2022/05/29 11:27:41;;;;;;;6.03;0.80;;;13.30;99.90;;;;;;6244512;22;20020;-78
2022/05/29 11:30:37;;;;;;;1.67;0.65;;;13.50;99.90;;;;;;6220683;23;20087;-78
2022/05/29 11:33:15;;;;;;;6.25;0.82;;;13.80;99.90;;;;;;6244242;22;20476;-78
2022/05/29 11:36:07;;;;;;;7.10;0.75;;;14.10;99.90;;;;;;6242794;23;20058;-78
2022/05/29 11:38:33;;;;;;;;;;;14.40;99.90;;;;;;6244715;23;20012;-78
2022/05/29 11:41:04;;;;;;;5.25;1.17;;;14.50;99.90;;;;;;6216892;23;19917;-78
2022/05/29 11:43:38;;;;;;;4.70;0.70;;;14.70;99.90;;;;;;6244947;22;20462;-79
2022/05/29 11:52:06;;;;;;;3.40;0.68;;;15.20;99.90;;;;;;6243837;22;20099;-79
2022/05/29 11:54:34;;;;;;;1.17;0.60;;;15.40;99.90;;;;;;6244763;22;20016;-79
2022/05/29 11:57:09;;;;;;;1.95;0.52;;;15.40;99.90;;;;;;6217238;23;20527;-79
2022/05/29 12:00:04;;;;;;;4.35;0.73;;;15.30;99.90;;;;;;6241902;23;20066;-78
2022/05/29 12:02:40;;;;;;;3.58;0.70;;;15.20;99.90;;;;;;6214549;23;20023;-78
2022/05/29 12:05:30;;;;;;;7.55;1.10;;;15.10;99.90;;;;;;6243279;23;20456;-78
2022/05/29 12:08:26;;;;;;;3.88;0.75;;;14.90;99.90;;;;;;6242861;23;20012;-79
2022/05/29 12:10:56;;;;;;;2.28;1.10;;;14.70;99.90;;;;;;6241919;23;20036;-79
2022/05/29 12:13:27;;;;;;;4.47;0.88;;;14.50;99.90;;;;;;6242903;22;20035;-78
2022/05/29 12:15:58;;;;;;;5.32;1.35;;;14.30;99.90;;;;;;6244469;23;20016;-79
2022/05/29 12:18:27;;;;;;;3.03;0.80;;;14.00;99.90;;;;;;6245737;22;20008;-78
2022/05/29 12:21:00;;;;;;;11.73;1.35;;;13.70;99.90;;;;;;6243096;23;20038;-78
2022/05/29 12:23:25;;;;;;;6.63;0.98;;;13.40;99.90;;;;;;6242543;22;20008;-78
2022/05/29 12:26:09;;;;;;;8.40;1.10;;;13.20;99.90;;;;;;6242503;23;20024;-78
2022/05/29 12:28:41;;;;;;;6.13;1.10;;;13.10;99.90;;;;;;6245064;22;20008;-79
2022/05/29 12:31:26;;;;;;;9.15;0.90;;;12.90;99.90;;;;;;6244255;23;20016;-77
2022/05/29 12:33:51;;;;;;;3.53;1.10;;;12.90;99.90;;;;;;6244937;22;20019;-79
2022/05/29 12:36:29;;;;;;;3.83;0.88;;;12.90;99.90;;;;;;6243970;22;20008;-78
2022/05/29 12:39:03;;;;;;;2.55;0.80;;;12.90;99.90;;;;;;6243625;23;20015;-79
2022/05/29 12:41:49;;;;;;;6.38;0.70;;;13.00;99.90;;;;;;6242376;23;20087;-80
2022/05/29 12:44:43;;;;;;;2.35;0.57;;;13.00;99.90;;;;;;6244982;23;20465;-80
2022/05/29 12:47:42;;;;;;;4.95;0.77;;;13.00;99.90;;;;;;6245867;23;20187;-79
2022/05/29 12:50:18;;;;;;;1.50;0.55;;;13.20;99.90;;;;;;6241993;23;20524;-79
2022/05/29 12:53:04;;;;;;;5.38;1.10;;;13.30;99.90;;;;;;6243173;22;20023;-79
2022/05/29 12:55:56;;;;;;;4.38;0.93;;;13.40;99.90;;;;;;6240893;23;20020;-79
2022/05/29 12:58:44;;;;;;;1.67;0.63;;;13.50;99.90;;;;;;6240793;22;20082;-80
2022/05/29 13:01:34;;;;;;;3.45;0.85;;;13.70;99.90;;;;;;6239666;23;20012;-80
2022/05/29 13:04:45;;;;;;;5.68;0.88;;;13.80;99.90;;;;;;6242114;22;20472;-79
2022/05/29 13:07:25;;;;;;;4.72;1.10;;;14.00;99.90;;;;;;6241600;23;20034;-79
2022/05/29 13:10:20;;;;;;;4.57;1.35;;;14.10;99.90;;;;;;6241196;23;20368;-79
2022/05/29 13:13:01;;;;;;;15.85;7.30;;;14.10;99.90;;;;;;6238829;22;20038;-79
2022/05/29 13:15:31;;;;;;;7.00;1.30;;;14.10;99.90;;;;;;6240295;23;20083;-78
2022/05/29 13:18:01;;;;;;;3.20;1.10;;;14.00;99.90;;;;;;6238957;23;20391;-78
2022/05/29 13:20:27;;;;;;;4.57;1.30;;;13.80;99.90;;;;;;6237892;23;20023;-79
2022/05/29 13:22:57;;;;;;;6.43;0.95;;;13.70;99.90;;;;;;6248335;22;20020;-81
2022/05/29 13:25:30;;;;;;;3.30;0.80;;;13.60;99.90;;;;;;6248739;23;20020;-79
2022/05/29 13:27:58;;;;;;;10.75;1.55;;;13.40;99.90;;;;;;6221473;23;20026;-79
2022/05/29 13:31:00;;;;;;;5.47;1.20;;;13.20;99.90;;;;;;6238194;23;20019;-80
2022/05/29 13:33:28;;;;;;;5.65;0.82;;;13.00;99.90;;;;;;6213215;23;20016;-78
2022/05/29 13:35:55;;;;;;;8.48;1.38;;;12.80;99.90;;;;;;6238604;23;20378;-78
2022/05/29 13:38:45;;;;;;;4.78;0.90;;;12.70;99.90;;;;;;6245679;22;20066;-78
2022/05/29 13:41:29;;;;;;;5.70;0.90;;;12.80;99.90;;;;;;6244089;23;20484;-78
2022/05/29 13:43:57;;;;;;;2.88;0.95;;;12.80;99.90;;;;;;6244025;23;20062;-78
2022/05/29 13:46:25;;;;;;;2.17;1.10;;;12.90;99.90;;;;;;6244960;23;20024;-77
2022/05/29 13:49:01;;;;;;;3.88;0.85;;;12.90;99.90;;;;;;6244688;23;20027;-79
2022/05/29 13:51:30;;;;;;;3.20;0.90;;;13.10;99.90;;;;;;6243723;23;20016;-78